createdAt,value
2019-03-11T00:00:13.300Z,5.62
2019-03-11T00:01:13.227Z,5.66
2019-03-11T00:02:13.115Z,5.66
2019-03-11T00:03:13.127Z,5.62
2019-03-11T00:04:13.862Z,5.60
2019-03-11T00:05:14.881Z,5.63
2019-03-11T00:06:12.770Z,5.62
2019-03-11T00:07:12.786Z,5.62
2019-03-11T00:08:12.599Z,5.59
2019-03-11T00:09:12.558Z,5.63
2019-03-11T00:10:12.428Z,5.59
2019-03-11T00:11:12.371Z,5.63
2019-03-11T00:12:12.289Z,5.65
2019-03-11T00:13:12.274Z,5.58
2019-03-11T00:14:12.083Z,5.58
2019-03-11T00:15:12.091Z,5.58
2019-03-11T00:16:11.918Z,5.60
2019-03-11T00:17:11.928Z,5.59
2019-03-11T00:18:11.736Z,5.60
2019-03-11T00:19:11.710Z,5.67
2019-03-11T00:20:11.563Z,5.65
2019-03-11T00:21:11.514Z,5.65
2019-03-11T00:22:11.409Z,5.59
2019-03-11T00:23:11.302Z,5.63
2019-03-11T00:24:11.329Z,5.67
2019-03-11T00:25:11.146Z,5.73
2019-03-11T00:26:11.045Z,5.90
2019-03-11T00:27:11.074Z,5.87
2019-03-11T00:28:10.879Z,5.88
2019-03-11T00:29:10.787Z,5.88
2019-03-11T00:30:10.758Z,5.99
2019-03-11T00:31:10.614Z,5.90
2019-03-11T00:32:10.546Z,5.88
2019-03-11T00:33:10.472Z,5.93
2019-03-11T00:34:10.355Z,5.87
2019-03-11T00:35:10.270Z,5.92
2019-03-11T00:36:10.282Z,5.96
2019-03-11T00:37:10.120Z,5.90
2019-03-11T00:38:10.009Z,5.80
2019-03-11T00:39:09.998Z,5.78
2019-03-11T00:40:09.839Z,5.66
2019-03-11T00:41:09.759Z,5.73
2019-03-11T00:42:09.746Z,5.67
2019-03-11T00:43:09.582Z,5.63
2019-03-11T00:44:09.515Z,5.56
2019-03-11T00:45:09.418Z,5.59
2019-03-11T00:46:10.360Z,5.59
2019-03-11T00:47:09.250Z,5.56
2019-03-11T00:48:09.161Z,5.63
2019-03-11T00:49:09.145Z,5.58
2019-03-11T00:50:08.974Z,5.59
2019-03-11T00:51:08.888Z,5.48
2019-03-11T00:52:08.937Z,5.49
2019-03-11T00:53:08.722Z,5.47
2019-03-11T00:54:08.636Z,5.37
2019-03-11T00:55:08.570Z,5.32
2019-03-11T00:56:08.456Z,5.33
2019-03-11T00:57:08.389Z,5.29
2019-03-11T00:58:08.390Z,5.33
2019-03-11T00:59:08.209Z,5.35
2019-03-11T01:00:08.111Z,5.20
2019-03-11T01:01:08.107Z,5.22
2019-03-11T01:02:07.968Z,5.22
2019-03-11T01:03:15.390Z,5.15
2019-03-11T01:04:07.765Z,5.23
2019-03-11T01:05:07.726Z,5.14
2019-03-11T01:06:07.597Z,5.15
2019-03-11T01:07:07.517Z,5.14
2019-03-11T01:08:09.482Z,5.12
2019-03-11T01:09:07.332Z,5.22
2019-03-11T01:10:07.246Z,5.17
2019-03-11T01:11:07.250Z,5.15
2019-03-11T01:12:07.096Z,5.12
2019-03-11T01:13:07.058Z,5.15
2019-03-11T01:14:06.904Z,5.06
2019-03-11T01:15:06.937Z,4.99
2019-03-11T01:16:06.726Z,5.06
2019-03-11T01:17:06.707Z,4.97
2019-03-11T01:18:06.555Z,4.93
2019-03-11T01:19:06.491Z,4.96
2019-03-11T01:20:06.377Z,4.97
2019-03-11T01:21:06.400Z,4.94
2019-03-11T01:22:06.219Z,4.94
2019-03-11T01:23:06.129Z,4.97
2019-03-11T01:24:06.116Z,5.02
2019-03-11T01:25:05.949Z,5.06
2019-03-11T01:26:05.862Z,5.02
2019-03-11T01:27:05.967Z,5.14
2019-03-11T01:28:05.694Z,5.23
2019-03-11T01:29:05.602Z,5.29
2019-03-11T01:30:05.540Z,5.26
2019-03-11T01:31:05.470Z,5.27
2019-03-11T01:32:05.342Z,5.33
2019-03-11T01:33:05.284Z,5.29
2019-03-11T01:34:05.173Z,5.35
2019-03-11T01:35:05.168Z,5.35
2019-03-11T01:36:04.998Z,5.26
2019-03-11T01:37:06.920Z,5.32
2019-03-11T01:38:04.843Z,5.30
2019-03-11T01:39:04.783Z,5.27
2019-03-11T01:40:04.654Z,5.22
2019-03-11T01:41:04.588Z,5.23
2019-03-11T01:42:04.484Z,5.20
2019-03-11T01:43:04.430Z,5.26
2019-03-11T01:44:04.307Z,5.23
2019-03-11T01:45:04.314Z,5.24
2019-03-11T01:46:04.125Z,5.19
2019-03-11T01:47:04.066Z,5.20
2019-03-11T01:48:04.066Z,5.19
2019-03-11T01:49:03.866Z,5.22
2019-03-11T01:50:03.787Z,5.20
2019-03-11T01:51:03.738Z,5.15
2019-03-11T01:52:03.606Z,5.19
2019-03-11T01:53:03.533Z,5.20
2019-03-11T01:54:03.458Z,5.14
2019-03-11T01:55:03.346Z,5.14
2019-03-11T01:56:03.369Z,5.22
2019-03-11T01:57:03.174Z,5.19
2019-03-11T01:58:03.117Z,5.09
2019-03-11T01:59:03.080Z,5.11
2019-03-11T02:00:02.913Z,5.17
2019-03-11T02:01:02.825Z,5.14
2019-03-11T02:02:02.795Z,5.14
2019-03-11T02:03:02.665Z,5.14
2019-03-11T02:04:02.567Z,5.17
2019-03-11T02:05:02.511Z,5.06
2019-03-11T02:06:02.394Z,5.17
2019-03-11T02:07:02.307Z,5.08
2019-03-11T02:08:02.269Z,5.02
2019-03-11T02:09:02.135Z,5.08
2019-03-11T02:10:02.139Z,5.09
2019-03-11T02:11:01.971Z,5.04
2019-03-11T02:12:01.888Z,5.09
2019-03-11T02:13:01.879Z,4.99
2019-03-11T02:14:01.705Z,5.02
2019-03-11T02:15:01.617Z,5.08
2019-03-11T02:16:01.559Z,5.05
2019-03-11T02:17:01.455Z,5.01
2019-03-11T02:18:01.373Z,5.06
2019-03-11T02:19:01.378Z,5.14
2019-03-11T02:20:01.182Z,5.22
2019-03-11T02:21:01.102Z,5.15
2019-03-11T02:22:01.100Z,5.05
2019-03-11T02:23:00.934Z,5.05
2019-03-11T02:24:00.837Z,5.12
2019-03-11T02:25:00.798Z,5.01
2019-03-11T02:26:00.659Z,4.99
2019-03-11T02:27:00.570Z,5.08
2019-03-11T02:28:00.546Z,5.04
2019-03-11T02:29:00.405Z,5.05
2019-03-11T02:30:00.469Z,5.12
2019-03-11T02:31:00.330Z,5.08
2019-03-11T02:32:00.149Z,5.09
2019-03-11T02:33:00.082Z,5.20
2019-03-11T02:34:00.043Z,5.20
2019-03-11T02:34:59.888Z,5.15
2019-03-11T02:35:59.803Z,5.17
2019-03-11T02:36:59.825Z,5.22
2019-03-11T02:37:59.647Z,5.17
2019-03-11T02:38:59.550Z,5.11
2019-03-11T02:39:59.472Z,5.11
2019-03-11T02:40:59.370Z,5.11
2019-03-11T02:41:59.275Z,5.22
2019-03-11T02:42:59.330Z,5.24
2019-03-11T02:43:59.111Z,5.29
2019-03-11T02:44:59.118Z,5.23
2019-03-11T02:45:58.945Z,5.33
2019-03-11T02:46:58.904Z,5.23
2019-03-11T02:47:58.774Z,5.14
2019-03-11T02:48:58.670Z,5.06
2019-03-11T02:49:58.596Z,5.02
2019-03-11T02:50:58.521Z,5.01
2019-03-11T02:51:58.414Z,5.02
2019-03-11T02:52:58.335Z,5.04
2019-03-11T02:53:58.241Z,5.02
2019-03-11T02:54:58.242Z,5.02
2019-03-11T02:55:58.080Z,4.96
2019-03-11T02:56:58.049Z,4.93
2019-03-11T02:57:57.902Z,4.83
2019-03-11T02:58:57.864Z,4.94
2019-03-11T02:59:57.719Z,4.88
2019-03-11T03:00:57.669Z,4.96
2019-03-11T03:01:57.597Z,4.84
2019-03-11T03:02:57.479Z,4.83
2019-03-11T03:03:57.388Z,4.84
2019-03-11T03:04:57.288Z,4.84
2019-03-11T03:05:57.297Z,4.83
2019-03-11T03:06:57.113Z,4.71
2019-03-11T03:07:57.020Z,4.69
2019-03-11T03:08:58.078Z,4.75
2019-03-11T03:09:56.848Z,4.71
2019-03-11T03:10:56.818Z,4.67
2019-03-11T03:11:56.670Z,4.64
2019-03-11T03:12:56.625Z,4.68
2019-03-11T03:13:56.519Z,4.65
2019-03-11T03:14:56.431Z,4.69
2019-03-11T03:15:56.343Z,4.69
2019-03-11T03:16:56.245Z,4.68
2019-03-11T03:17:56.160Z,4.77
2019-03-11T03:18:56.189Z,4.68
2019-03-11T03:19:55.985Z,4.74
2019-03-11T03:20:57.910Z,4.69
2019-03-11T03:21:55.803Z,4.68
2019-03-11T03:22:55.778Z,4.61
2019-03-11T03:23:55.659Z,4.57
2019-03-11T03:24:55.587Z,4.61
2019-03-11T03:25:55.458Z,4.64
2019-03-11T03:26:55.390Z,4.65
2019-03-11T03:27:55.321Z,4.61
2019-03-11T03:28:55.214Z,4.65
2019-03-11T03:29:55.208Z,4.64
2019-03-11T03:30:55.028Z,4.72
2019-03-11T03:31:54.941Z,4.69
2019-03-11T03:32:54.924Z,4.71
2019-03-11T03:33:54.768Z,4.83
2019-03-11T03:34:54.676Z,4.80
2019-03-11T03:35:54.632Z,4.83
2019-03-11T03:36:54.497Z,4.75
2019-03-11T03:37:54.410Z,4.79
2019-03-11T03:38:54.379Z,4.83
2019-03-11T03:39:54.239Z,4.97
2019-03-11T03:40:54.148Z,4.83
2019-03-11T03:41:54.166Z,4.86
2019-03-11T03:42:54.109Z,4.87
2019-03-11T03:43:53.915Z,4.79
2019-03-11T03:44:53.879Z,4.94
2019-03-11T03:45:53.724Z,4.99
2019-03-11T03:46:53.647Z,5.02
2019-03-11T03:47:53.595Z,5.04
2019-03-11T03:48:53.503Z,4.96
2019-03-11T03:49:53.372Z,5.01
2019-03-11T03:50:53.307Z,4.96
2019-03-11T03:51:53.191Z,4.99
2019-03-11T03:52:53.216Z,4.99
2019-03-11T03:53:53.062Z,4.99
2019-03-11T03:54:54.050Z,5.04
2019-03-11T03:55:52.845Z,5.06
2019-03-11T03:56:54.279Z,5.04
2019-03-11T03:57:52.686Z,4.99
2019-03-11T03:58:52.604Z,5.12
2019-03-11T03:59:52.548Z,5.09
2019-03-11T04:00:52.427Z,5.09
2019-03-11T04:01:52.328Z,5.05
2019-03-11T04:02:52.260Z,5.14
2019-03-11T04:03:52.161Z,5.17
2019-03-11T04:04:52.063Z,5.06
2019-03-11T04:05:52.081Z,5.04
2019-03-11T04:06:51.890Z,5.05
2019-03-11T04:07:51.897Z,5.04
2019-03-11T04:08:51.726Z,5.01
2019-03-11T04:09:51.630Z,5.01
2019-03-11T04:10:51.605Z,4.99
2019-03-11T04:11:51.459Z,4.99
2019-03-11T04:12:51.370Z,4.93
2019-03-11T04:13:51.348Z,4.84
2019-03-11T04:14:51.194Z,4.88
2019-03-11T04:15:51.108Z,4.80
2019-03-11T04:16:51.137Z,4.83
2019-03-11T04:17:50.953Z,4.80
2019-03-11T04:18:50.869Z,4.84
2019-03-11T04:19:50.852Z,4.79
2019-03-11T04:20:50.674Z,4.72
2019-03-11T04:21:50.650Z,4.74
2019-03-11T04:22:50.512Z,4.65
2019-03-11T04:23:51.522Z,4.62
2019-03-11T04:24:50.331Z,4.68
2019-03-11T04:25:50.278Z,4.61
2019-03-11T04:26:50.155Z,4.59
2019-03-11T04:27:50.078Z,4.57
2019-03-11T04:28:49.993Z,4.64
2019-03-11T04:29:50.911Z,4.64
2019-03-11T04:30:49.805Z,4.74
2019-03-11T04:31:49.819Z,4.68
2019-03-11T04:32:49.630Z,4.68
2019-03-11T04:33:49.614Z,4.80
2019-03-11T04:34:49.495Z,4.77
2019-03-11T04:35:49.366Z,4.79
2019-03-11T04:36:49.328Z,4.90
2019-03-11T04:37:49.212Z,4.99
2019-03-11T04:38:49.110Z,4.94
2019-03-11T04:39:49.075Z,5.02
2019-03-11T04:40:48.930Z,5.02
2019-03-11T04:41:48.848Z,5.04
2019-03-11T04:42:48.859Z,5.01
2019-03-11T04:43:48.670Z,5.01
2019-03-11T04:44:48.596Z,5.02
2019-03-11T04:45:48.563Z,4.99
2019-03-11T04:46:48.413Z,5.02
2019-03-11T04:47:48.388Z,4.97
2019-03-11T04:48:48.236Z,4.99
2019-03-11T04:49:48.173Z,5.02
2019-03-11T04:50:48.092Z,4.96
2019-03-11T04:51:47.977Z,4.88
2019-03-11T04:52:47.900Z,4.80
2019-03-11T04:53:47.902Z,4.88
2019-03-11T04:54:47.727Z,4.79
2019-03-11T04:55:47.629Z,4.71
2019-03-11T04:56:47.617Z,4.62
2019-03-11T04:57:47.454Z,4.56
2019-03-11T04:58:47.426Z,4.53
2019-03-11T04:59:47.308Z,4.61
2019-03-11T05:00:47.202Z,4.54
2019-03-11T05:01:47.146Z,4.47
2019-03-11T05:02:47.019Z,4.50
2019-03-11T05:03:46.932Z,4.46
2019-03-11T05:04:46.884Z,4.38
2019-03-11T05:05:46.759Z,4.36
2019-03-11T05:06:46.763Z,4.26
2019-03-11T05:07:46.595Z,4.24
2019-03-11T05:08:46.574Z,4.28
2019-03-11T05:09:46.423Z,4.16
2019-03-11T05:10:46.390Z,4.20
2019-03-11T05:11:46.239Z,4.13
2019-03-11T05:12:46.199Z,4.17
2019-03-11T05:13:46.064Z,4.18
2019-03-11T05:14:46.043Z,4.20
2019-03-11T05:15:45.898Z,4.24
2019-03-11T05:16:45.913Z,4.17
2019-03-11T05:17:48.187Z,4.16
2019-03-11T05:18:45.724Z,4.14
2019-03-11T05:19:45.559Z,4.11
2019-03-11T05:20:45.528Z,4.10
2019-03-11T05:21:45.368Z,4.08
2019-03-11T05:22:45.337Z,4.00
2019-03-11T05:23:45.196Z,4.04
2019-03-11T05:24:45.131Z,4.04
2019-03-11T05:25:45.024Z,4.04
2019-03-11T05:26:44.960Z,4.08
2019-03-11T05:27:44.851Z,4.04
2019-03-11T05:28:44.867Z,4.16
2019-03-11T05:29:44.677Z,4.18
2019-03-11T05:30:44.588Z,4.13
2019-03-11T05:31:44.490Z,4.10
2019-03-11T05:32:46.443Z,4.11
2019-03-11T05:33:44.321Z,4.10
2019-03-11T05:34:44.244Z,4.14
2019-03-11T05:35:44.144Z,4.11
2019-03-11T05:36:44.103Z,4.08
2019-03-11T05:37:43.967Z,4.21
2019-03-11T05:38:43.922Z,4.29
2019-03-11T05:39:43.810Z,4.31
2019-03-11T05:40:43.715Z,4.24
2019-03-11T05:41:43.623Z,4.42
2019-03-11T05:42:43.635Z,4.43
2019-03-11T05:43:43.446Z,4.42
2019-03-11T05:44:44.404Z,4.54
2019-03-11T05:45:43.271Z,4.49
2019-03-11T05:46:43.257Z,4.49
2019-03-11T05:47:43.122Z,4.50
2019-03-11T05:48:43.063Z,4.39
2019-03-11T05:49:42.934Z,4.44
2019-03-11T05:50:42.874Z,4.49
2019-03-11T05:51:42.748Z,4.51
2019-03-11T05:52:42.677Z,4.54
2019-03-11T05:53:42.573Z,4.49
2019-03-11T05:54:42.522Z,4.50
2019-03-11T05:55:42.419Z,4.54
2019-03-11T05:56:42.399Z,4.51
2019-03-11T05:57:42.227Z,4.49
2019-03-11T05:58:42.219Z,4.50
2019-03-11T05:59:42.095Z,4.56
2019-03-11T06:00:42.014Z,4.47
2019-03-11T06:01:41.878Z,4.38
2019-03-11T06:02:41.797Z,4.51
2019-03-11T06:03:41.716Z,4.39
2019-03-11T06:04:41.666Z,4.38
2019-03-11T06:05:41.555Z,4.44
2019-03-11T06:06:41.450Z,4.49
2019-03-11T06:07:42.593Z,4.42
2019-03-11T06:08:41.357Z,4.43
2019-03-11T06:09:41.218Z,4.34
2019-03-11T06:10:41.121Z,4.28
2019-03-11T06:11:41.007Z,4.31
2019-03-11T06:12:41.013Z,4.29
2019-03-11T06:13:40.867Z,4.26
2019-03-11T06:14:40.783Z,4.21
2019-03-11T06:15:40.672Z,4.18
2019-03-11T06:16:40.574Z,4.17
2019-03-11T06:17:40.675Z,4.10
2019-03-11T06:18:40.397Z,4.14
2019-03-11T06:19:40.312Z,4.06
2019-03-11T06:20:40.347Z,4.04
2019-03-11T06:21:40.194Z,4.08
2019-03-11T06:22:40.122Z,4.04
2019-03-11T06:23:39.975Z,4.08
2019-03-11T06:24:39.928Z,3.99
2019-03-11T06:25:39.809Z,4.07
2019-03-11T06:26:39.737Z,4.02
2019-03-11T06:27:39.620Z,4.06
2019-03-11T06:28:39.556Z,4.08
2019-03-11T06:29:39.490Z,4.06
2019-03-11T06:30:39.389Z,4.04
2019-03-11T06:31:39.267Z,4.06
2019-03-11T06:32:39.299Z,4.07
2019-03-11T06:33:39.101Z,4.08
2019-03-11T06:34:40.129Z,4.06
2019-03-11T06:35:40.399Z,4.06
2019-03-11T06:36:38.834Z,3.95
2019-03-11T06:37:38.761Z,3.81
2019-03-11T06:38:38.665Z,3.67
2019-03-11T06:39:38.584Z,3.64
2019-03-11T06:40:38.545Z,3.71
2019-03-11T06:41:38.407Z,3.54
2019-03-11T06:42:38.355Z,3.50
2019-03-11T06:43:38.333Z,3.41
2019-03-11T06:44:38.358Z,3.42
2019-03-11T06:45:38.072Z,3.44
2019-03-11T06:46:37.971Z,3.34
2019-03-11T06:47:37.917Z,3.34
2019-03-11T06:48:37.793Z,3.31
2019-03-11T06:49:37.697Z,3.34
2019-03-11T06:50:37.631Z,3.26
2019-03-11T06:51:37.523Z,3.39
2019-03-11T06:52:37.438Z,3.33
2019-03-11T06:53:37.358Z,3.31
2019-03-11T06:54:37.279Z,3.31
2019-03-11T06:55:37.190Z,3.41
2019-03-11T06:56:37.101Z,3.31
2019-03-11T06:57:37.005Z,3.34
2019-03-11T06:58:36.919Z,3.35
2019-03-11T06:59:36.827Z,3.34
2019-03-11T07:00:36.763Z,3.25
2019-03-11T07:01:36.710Z,3.28
2019-03-11T07:02:36.577Z,3.30
2019-03-11T07:03:36.483Z,3.41
2019-03-11T07:04:36.402Z,3.30
2019-03-11T07:05:36.327Z,3.28
2019-03-11T07:06:36.220Z,3.39
2019-03-11T07:07:36.125Z,3.35
2019-03-11T07:08:36.055Z,3.25
2019-03-11T07:09:35.960Z,3.26
2019-03-11T07:10:35.903Z,3.16
2019-03-11T07:11:35.785Z,3.19
2019-03-11T07:12:35.696Z,3.12
2019-03-11T07:13:35.607Z,3.16
2019-03-11T07:14:35.513Z,3.16
2019-03-11T07:15:35.451Z,3.28
2019-03-11T07:16:35.354Z,3.22
2019-03-11T07:17:35.251Z,3.44
2019-03-11T07:18:35.171Z,3.37
2019-03-11T07:19:35.075Z,3.42
2019-03-11T07:20:35.018Z,3.56
2019-03-11T07:21:34.900Z,3.60
2019-03-11T07:22:34.835Z,3.60
2019-03-11T07:23:34.728Z,3.57
2019-03-11T07:24:34.644Z,3.64
2019-03-11T07:25:34.589Z,3.71
2019-03-11T07:26:34.485Z,3.74
2019-03-11T07:27:34.385Z,3.68
2019-03-11T07:28:34.306Z,3.81
2019-03-11T07:29:34.218Z,3.81
2019-03-11T07:30:34.167Z,3.89
2019-03-11T07:31:34.044Z,3.98
2019-03-11T07:32:33.965Z,3.89
2019-03-11T07:33:33.858Z,3.95
2019-03-11T07:34:33.776Z,3.98
2019-03-11T07:35:33.686Z,3.88
2019-03-11T07:36:33.621Z,3.84
2019-03-11T07:37:33.510Z,3.86
2019-03-11T07:38:33.442Z,3.84
2019-03-11T07:39:33.348Z,3.93
2019-03-11T07:40:33.257Z,3.98
2019-03-11T07:41:33.174Z,4.00
2019-03-11T07:42:33.090Z,4.00
2019-03-11T07:43:33.002Z,4.00
2019-03-11T07:44:32.913Z,4.00
2019-03-11T07:45:32.815Z,4.07
2019-03-11T07:46:32.766Z,3.98
2019-03-11T07:47:32.651Z,4.02
2019-03-11T07:48:32.593Z,4.10
2019-03-11T07:49:32.501Z,4.14
2019-03-11T07:50:32.393Z,4.14
2019-03-11T07:51:32.310Z,4.25
2019-03-11T07:52:32.213Z,4.25
2019-03-11T07:53:32.118Z,4.31
2019-03-11T07:54:35.674Z,4.24
2019-03-11T07:55:31.949Z,4.26
2019-03-11T07:56:31.900Z,4.14
2019-03-11T07:57:31.780Z,4.16
2019-03-11T07:58:31.697Z,4.26
2019-03-11T07:59:31.603Z,4.29
2019-03-11T08:00:31.528Z,4.32
2019-03-11T08:01:31.443Z,4.21
2019-03-11T08:02:31.348Z,4.29
2019-03-11T08:03:31.281Z,4.26
2019-03-11T08:04:31.169Z,4.36
2019-03-11T08:05:31.085Z,4.35
2019-03-11T08:06:31.016Z,4.26
2019-03-11T08:07:30.913Z,4.28
2019-03-11T08:08:30.884Z,4.29
2019-03-11T08:09:37.670Z,4.25
2019-03-11T08:10:30.650Z,4.26
2019-03-11T08:11:30.600Z,4.21
2019-03-11T08:12:30.483Z,4.29
2019-03-11T08:13:30.395Z,4.29
2019-03-11T08:14:30.304Z,4.29
2019-03-11T08:15:30.236Z,4.20
2019-03-11T08:16:30.153Z,4.26
2019-03-11T08:17:30.052Z,4.29
2019-03-11T08:18:34.930Z,4.29
2019-03-11T08:19:29.870Z,4.29
2019-03-11T08:20:29.796Z,4.29
2019-03-11T08:21:29.724Z,4.26
2019-03-11T08:22:29.611Z,4.24
2019-03-11T08:23:29.529Z,4.25
2019-03-11T08:24:29.442Z,4.32
2019-03-11T08:25:29.350Z,4.29
2019-03-11T08:26:29.297Z,4.24
2019-03-11T08:27:29.190Z,4.32
2019-03-11T08:28:29.096Z,4.28
2019-03-11T08:29:29.005Z,4.31
2019-03-11T08:30:28.927Z,4.24
2019-03-11T08:31:28.845Z,4.38
2019-03-11T08:32:28.742Z,4.36
2019-03-11T08:33:28.662Z,4.38
2019-03-11T08:34:28.569Z,4.36
2019-03-11T08:35:28.484Z,4.42
2019-03-11T08:36:28.415Z,4.50
2019-03-11T08:37:28.314Z,4.62
2019-03-11T08:38:28.227Z,4.69
2019-03-11T08:39:28.152Z,4.77
2019-03-11T08:40:28.055Z,4.80
2019-03-11T08:41:27.991Z,4.80
2019-03-11T08:42:27.891Z,4.86
2019-03-11T08:43:27.796Z,4.86
2019-03-11T08:44:27.708Z,4.86
2019-03-11T08:45:27.626Z,4.79
2019-03-11T08:46:27.544Z,4.74
2019-03-11T08:47:27.451Z,4.74
2019-03-11T08:48:27.367Z,4.83
2019-03-11T08:49:27.272Z,4.72
2019-03-11T08:50:27.197Z,4.65
2019-03-11T08:51:27.129Z,4.68
2019-03-11T08:52:27.014Z,4.69
2019-03-11T08:53:26.938Z,4.71
2019-03-11T08:54:26.849Z,4.83
2019-03-11T08:55:27.874Z,4.74
2019-03-11T08:56:26.690Z,4.87
2019-03-11T08:57:26.582Z,4.83
2019-03-11T08:58:26.556Z,4.97
2019-03-11T08:59:26.422Z,4.97
2019-03-11T09:00:26.340Z,5.12
2019-03-11T09:01:26.304Z,5.20
2019-03-11T09:02:26.157Z,5.26
2019-03-11T09:03:26.074Z,5.27
2019-03-11T09:04:26.087Z,5.17
2019-03-11T09:05:25.895Z,5.23
2019-03-11T09:06:25.808Z,5.24
2019-03-11T09:07:25.812Z,5.14
2019-03-11T09:08:25.646Z,5.20
2019-03-11T09:09:25.554Z,5.15
2019-03-11T09:10:25.599Z,4.99
2019-03-11T09:11:25.397Z,5.02
2019-03-11T09:12:25.311Z,5.04
2019-03-11T09:13:25.413Z,5.14
2019-03-11T09:14:25.127Z,5.12
2019-03-11T09:15:25.050Z,5.08
2019-03-11T09:16:24.952Z,5.12
2019-03-11T09:17:25.066Z,5.22
2019-03-11T09:18:24.780Z,5.20
2019-03-11T09:19:24.692Z,5.08
2019-03-11T09:20:24.645Z,5.02
2019-03-11T09:21:24.521Z,4.96
2019-03-11T09:22:24.450Z,4.96
2019-03-11T09:23:24.455Z,4.97
2019-03-11T09:24:24.270Z,4.96
2019-03-11T09:25:24.175Z,5.01
2019-03-11T09:26:24.273Z,5.04
2019-03-11T09:27:24.028Z,5.14
2019-03-11T09:28:24.005Z,5.12
2019-03-11T09:29:23.880Z,5.24
2019-03-11T09:30:23.745Z,5.33
2019-03-11T09:31:23.672Z,5.41
2019-03-11T09:32:23.723Z,5.55
2019-03-11T09:33:23.498Z,5.65
2019-03-11T09:34:23.409Z,5.60
2019-03-11T09:35:23.512Z,5.67
2019-03-11T09:36:23.235Z,5.80
2019-03-11T09:37:23.354Z,5.75
2019-03-11T09:38:23.067Z,5.87
2019-03-11T09:39:22.992Z,6.08
2019-03-11T09:40:22.931Z,6.25
2019-03-11T09:41:22.811Z,6.10
2019-03-11T09:42:22.748Z,5.99
2019-03-11T09:43:22.761Z,5.95
2019-03-11T09:44:22.558Z,5.92
2019-03-11T09:45:24.345Z,5.75
2019-03-11T09:46:22.386Z,5.87
2019-03-11T09:47:22.403Z,6.03
2019-03-11T09:48:22.219Z,6.10
2019-03-11T09:49:22.171Z,6.10
2019-03-11T09:50:22.049Z,6.16
2019-03-11T09:51:22.187Z,6.13
2019-03-11T09:52:21.897Z,6.25
2019-03-11T09:53:21.993Z,6.35
2019-03-11T09:54:21.710Z,6.57
2019-03-11T09:55:21.802Z,6.79
2019-03-11T09:56:21.544Z,6.82
2019-03-11T09:57:21.639Z,6.79
2019-03-11T09:58:21.378Z,6.71
2019-03-11T09:59:21.302Z,6.65
2019-03-11T10:00:21.421Z,6.61
2019-03-11T10:01:21.122Z,6.55
2019-03-11T10:02:21.054Z,6.33
2019-03-11T10:03:21.035Z,6.40
2019-03-11T10:04:20.887Z,6.38
2019-03-11T10:05:20.792Z,6.57
2019-03-11T10:06:20.709Z,6.91
2019-03-11T10:07:20.635Z,7.24
2019-03-11T10:08:20.546Z,7.66
2019-03-11T10:09:20.666Z,7.94
2019-03-11T10:10:20.379Z,7.79
2019-03-11T10:11:20.286Z,7.62
2019-03-11T10:12:20.326Z,7.51
2019-03-11T10:13:20.119Z,7.33
2019-03-11T10:14:20.036Z,7.48
2019-03-11T10:15:20.088Z,7.60
2019-03-11T10:16:19.877Z,7.50
2019-03-11T10:17:19.927Z,7.60
2019-03-11T10:18:19.705Z,7.37
2019-03-11T10:19:19.623Z,7.48
2019-03-11T10:20:19.712Z,7.32
2019-03-11T10:21:19.460Z,7.37
2019-03-11T10:22:19.387Z,7.30
2019-03-11T10:23:19.321Z,7.45
2019-03-11T10:24:19.214Z,7.58
2019-03-11T10:25:19.134Z,7.70
2019-03-11T10:26:19.138Z,7.74
2019-03-11T10:27:18.988Z,7.84
2019-03-11T10:28:18.896Z,7.91
2019-03-11T10:29:18.953Z,8.06
2019-03-11T10:30:18.722Z,8.17
2019-03-11T10:31:18.630Z,8.06
2019-03-11T10:32:18.606Z,8.31
2019-03-11T10:33:18.464Z,8.14
2019-03-11T10:34:18.393Z,8.46
2019-03-11T10:35:33.383Z,8.29
2019-03-11T10:36:18.226Z,8.39
2019-03-11T10:37:18.149Z,8.36
2019-03-11T10:38:18.115Z,8.46
2019-03-11T10:39:17.982Z,8.58
2019-03-11T10:40:17.890Z,9.08
2019-03-11T10:41:17.817Z,9.16
2019-03-11T10:42:17.728Z,8.94
2019-03-11T10:43:17.695Z,8.93
2019-03-11T10:44:17.564Z,8.67
2019-03-11T10:45:17.500Z,8.45
2019-03-11T10:46:17.400Z,8.61
2019-03-11T10:47:17.335Z,8.97
2019-03-11T10:48:17.452Z,9.24
2019-03-11T10:49:17.186Z,9.37
2019-03-11T10:50:17.074Z,9.34
2019-03-11T10:51:16.999Z,9.30
2019-03-11T10:52:16.910Z,9.10
2019-03-11T10:53:16.846Z,8.98
2019-03-11T10:54:16.754Z,9.30
2019-03-11T10:55:16.664Z,9.26
2019-03-11T10:56:16.590Z,9.34
2019-03-11T10:57:16.502Z,9.53
2019-03-11T10:58:16.434Z,9.59
2019-03-11T10:59:16.364Z,9.10
2019-03-11T11:00:16.258Z,8.97
2019-03-11T11:01:16.195Z,8.94
2019-03-11T11:02:16.097Z,8.80
2019-03-11T11:03:16.034Z,8.85
2019-03-11T11:04:15.931Z,8.93
2019-03-11T11:05:15.859Z,9.13
2019-03-11T11:06:17.199Z,9.12
2019-03-11T11:07:15.727Z,9.37
2019-03-11T11:08:15.624Z,9.62
2019-03-11T11:09:15.530Z,9.71
2019-03-11T11:10:15.455Z,10.31
2019-03-11T11:11:15.368Z,10.39
2019-03-11T11:12:15.289Z,10.20
2019-03-11T11:13:15.218Z,10.26
2019-03-11T11:14:15.123Z,10.20
2019-03-11T11:15:15.051Z,10.09
2019-03-11T11:16:14.964Z,9.98
2019-03-11T11:17:14.883Z,9.81
2019-03-11T11:18:14.815Z,9.74
2019-03-11T11:19:14.725Z,9.63
2019-03-11T11:20:14.631Z,9.67
2019-03-11T11:21:14.555Z,9.62
2019-03-11T11:22:14.478Z,9.55
2019-03-11T11:23:14.407Z,9.53
2019-03-11T11:24:14.324Z,9.38
2019-03-11T11:25:14.230Z,9.40
2019-03-11T11:26:14.151Z,9.19
2019-03-11T11:27:14.069Z,9.12
2019-03-11T11:28:13.998Z,8.94
2019-03-11T11:29:13.906Z,8.94
2019-03-11T11:30:13.876Z,8.93
2019-03-11T11:31:13.752Z,8.80
2019-03-11T11:32:13.658Z,8.78
2019-03-11T11:33:13.606Z,8.78
2019-03-11T11:34:13.502Z,8.65
2019-03-11T11:35:13.413Z,8.55
2019-03-11T11:36:13.338Z,8.50
2019-03-11T11:37:13.259Z,8.49
2019-03-11T11:38:13.184Z,8.55
2019-03-11T11:39:13.093Z,8.64
2019-03-11T11:40:12.997Z,8.71
2019-03-11T11:41:12.920Z,8.85
2019-03-11T11:42:12.845Z,8.83
2019-03-11T11:43:12.771Z,9.01
2019-03-11T11:44:12.671Z,9.26
2019-03-11T11:45:12.592Z,9.53
2019-03-11T11:46:12.505Z,9.58
2019-03-11T11:47:12.428Z,9.62
2019-03-11T11:48:12.355Z,10.13
2019-03-11T11:49:12.273Z,9.99
2019-03-11T11:50:12.174Z,9.86
2019-03-11T11:51:12.093Z,9.99
2019-03-11T11:52:12.019Z,9.93
2019-03-11T11:53:11.948Z,9.80
2019-03-11T11:54:11.848Z,9.73
2019-03-11T11:55:11.787Z,9.89
2019-03-11T11:56:11.688Z,10.55
2019-03-11T11:57:11.644Z,10.57
2019-03-11T11:58:11.542Z,10.43
2019-03-11T11:59:11.445Z,10.29
2019-03-11T12:00:11.360Z,10.01
2019-03-11T12:01:11.284Z,9.83
2019-03-11T12:02:11.203Z,9.59
2019-03-11T12:03:11.296Z,9.59
2019-03-11T12:04:13.439Z,9.50
2019-03-11T12:05:10.982Z,9.58
2019-03-11T12:06:10.868Z,9.35
2019-03-11T12:07:11.001Z,9.41
2019-03-11T12:08:10.712Z,9.78
2019-03-11T12:09:10.849Z,9.78
2019-03-11T12:10:10.538Z,9.73
2019-03-11T12:11:10.615Z,9.71
2019-03-11T12:12:10.372Z,9.71
2019-03-11T12:13:10.296Z,9.86
2019-03-11T12:14:10.223Z,9.68
2019-03-11T12:15:10.233Z,9.65
2019-03-11T12:16:10.051Z,9.71
2019-03-11T12:17:09.969Z,9.71
2019-03-11T12:18:09.888Z,9.71
2019-03-11T12:19:09.810Z,10.02
2019-03-11T12:20:09.720Z,10.46
2019-03-11T12:21:09.641Z,10.25
2019-03-11T12:22:09.550Z,10.34
2019-03-11T12:23:09.477Z,10.24
2019-03-11T12:24:09.409Z,10.28
2019-03-11T12:25:09.314Z,10.54
2019-03-11T12:26:09.227Z,10.51
2019-03-11T12:27:09.288Z,10.32
2019-03-11T12:28:09.081Z,10.14
2019-03-11T12:29:08.989Z,9.96
2019-03-11T12:30:08.904Z,9.89
2019-03-11T12:31:08.816Z,9.63
2019-03-11T12:32:08.917Z,9.71
2019-03-11T12:33:08.662Z,9.73
2019-03-11T12:34:08.765Z,9.74
2019-03-11T12:35:08.485Z,9.71
2019-03-11T12:36:08.527Z,9.83
2019-03-11T12:37:08.323Z,9.78
2019-03-11T12:38:08.337Z,9.78
2019-03-11T12:39:08.181Z,9.58
2019-03-11T12:40:08.149Z,9.59
2019-03-11T12:41:08.013Z,9.75
2019-03-11T12:42:07.914Z,9.98
2019-03-11T12:43:07.959Z,9.95
2019-03-11T12:44:07.763Z,9.96
2019-03-11T12:45:07.667Z,9.95
2019-03-11T12:46:07.777Z,9.91
2019-03-11T12:47:07.519Z,9.99
2019-03-11T12:48:07.477Z,10.01
2019-03-11T12:49:07.431Z,10.09
2019-03-11T12:50:07.256Z,9.91
2019-03-11T12:51:07.197Z,9.91
2019-03-11T12:52:07.200Z,10.10
2019-03-11T12:53:07.021Z,9.96
2019-03-11T12:54:07.040Z,9.83
2019-03-11T12:55:06.847Z,9.73
2019-03-11T12:56:06.775Z,9.75
2019-03-11T12:57:06.709Z,9.74
2019-03-11T12:58:06.601Z,9.68
2019-03-11T12:59:06.539Z,9.35
2019-03-11T13:00:08.469Z,9.40
2019-03-11T13:01:06.354Z,9.35
2019-03-11T13:02:06.336Z,9.41
2019-03-11T13:03:06.201Z,9.34
2019-03-11T13:04:06.291Z,9.50
2019-03-11T13:05:06.027Z,9.63
2019-03-11T13:06:06.975Z,9.62
2019-03-11T13:07:05.876Z,9.56
2019-03-11T13:08:05.869Z,9.59
2019-03-11T13:09:05.721Z,9.53
2019-03-11T13:10:05.669Z,9.44
2019-03-11T13:11:05.527Z,9.41
2019-03-11T13:12:05.446Z,9.23
2019-03-11T13:13:05.382Z,9.24
2019-03-11T13:14:05.297Z,9.20
2019-03-11T13:15:05.206Z,9.17
2019-03-11T13:16:05.398Z,9.38